sensor_id;sensor_type;location;lat;lon;timestamp;pressure;altitude;pressure_sealevel;temperature;humidity
58967;BME280;44744;51.894;5.080;2023-01-25T00:00:04;103934.46;;;0.83;77.44
58967;BME280;44744;51.894;5.080;2023-01-25T00:01:05;103934.28;;;0.83;77.43
58967;BME280;44744;51.894;5.080;2023-01-25T00:02:06;103932.92;;;0.84;77.49
58967;BME280;44744;51.894;5.080;2023-01-25T00:03:07;103934.18;;;0.85;77.46
58967;BME280;44744;51.894;5.080;2023-01-25T00:04:07;103930.20;;;0.85;77.45
58967;BME280;44744;51.894;5.080;2023-01-25T00:05:08;103930.55;;;0.86;77.55
58967;BME280;44744;51.894;5.080;2023-01-25T00:06:08;103929.00;;;0.86;77.44
58967;BME280;44744;51.894;5.080;2023-01-25T00:07:08;103929.16;;;0.86;77.54
58967;BME280;44744;51.894;5.080;2023-01-25T00:08:09;103929.73;;;0.87;77.50
58967;BME280;44744;51.894;5.080;2023-01-25T00:09:10;103925.71;;;0.87;77.52
58967;BME280;44744;51.894;5.080;2023-01-25T00:10:10;103929.92;;;0.88;77.39
58967;BME280;44744;51.894;5.080;2023-01-25T00:11:10;103927.08;;;0.86;77.35
58967;BME280;44744;51.894;5.080;2023-01-25T00:12:11;103927.58;;;0.85;77.38
58967;BME280;44744;51.894;5.080;2023-01-25T00:13:11;103931.42;;;0.86;77.53
58967;BME280;44744;51.894;5.080;2023-01-25T00:14:13;103927.43;;;0.86;77.47
58967;BME280;44744;51.894;5.080;2023-01-25T00:15:13;103925.54;;;0.87;77.44
58967;BME280;44744;51.894;5.080;2023-01-25T00:16:14;103925.18;;;0.87;77.45
58967;BME280;44744;51.894;5.080;2023-01-25T00:17:15;103924.34;;;0.88;77.53
58967;BME280;44744;51.894;5.080;2023-01-25T00:18:15;103922.98;;;0.88;77.53
58967;BME280;44744;51.894;5.080;2023-01-25T00:19:15;103922.14;;;0.89;77.51
58967;BME280;44744;51.894;5.080;2023-01-25T00:20:16;103918.68;;;0.90;77.63
58967;BME280;44744;51.894;5.080;2023-01-25T00:21:19;103916.61;;;0.91;77.63
58967;BME280;44744;51.894;5.080;2023-01-25T00:22:20;103919.32;;;0.94;77.58
58967;BME280;44744;51.894;5.080;2023-01-25T00:23:20;103916.73;;;0.94;77.46
58967;BME280;44744;51.894;5.080;2023-01-25T00:24:20;103914.48;;;0.95;77.58
58967;BME280;44744;51.894;5.080;2023-01-25T00:25:21;103913.96;;;0.95;77.54
58967;BME280;44744;51.894;5.080;2023-01-25T00:26:21;103916.92;;;0.95;77.48
58967;BME280;44744;51.894;5.080;2023-01-25T00:27:22;103917.47;;;0.95;77.54
58967;BME280;44744;51.894;5.080;2023-01-25T00:28:22;103919.39;;;0.95;77.54
58967;BME280;44744;51.894;5.080;2023-01-25T00:29:22;103915.85;;;0.94;77.43
58967;BME280;44744;51.894;5.080;2023-01-25T00:30:23;103915.52;;;0.94;77.39
58967;BME280;44744;51.894;5.080;2023-01-25T00:32:39;103914.02;;;0.92;77.26
58967;BME280;44744;51.894;5.080;2023-01-25T00:33:54;103911.20;;;0.90;77.41
58967;BME280;44744;51.894;5.080;2023-01-25T00:34:55;103906.30;;;0.90;77.38
58967;BME280;44744;51.894;5.080;2023-01-25T00:35:55;103904.91;;;0.90;77.42
58967;BME280;44744;51.894;5.080;2023-01-25T00:38:29;103904.20;;;0.89;77.38
58967;BME280;44744;51.894;5.080;2023-01-25T00:39:32;103904.86;;;0.89;77.37
58967;BME280;44744;51.894;5.080;2023-01-25T00:40:32;103902.23;;;0.89;77.35
58967;BME280;44744;51.894;5.080;2023-01-25T00:41:33;103898.73;;;0.88;77.26
58967;BME280;44744;51.894;5.080;2023-01-25T00:42:33;103898.36;;;0.87;77.29
58967;BME280;44744;51.894;5.080;2023-01-25T00:43:33;103900.76;;;0.86;77.38
58967;BME280;44744;51.894;5.080;2023-01-25T00:44:34;103898.66;;;0.85;77.31
58967;BME280;44744;51.894;5.080;2023-01-25T00:45:34;103897.77;;;0.85;77.37
58967;BME280;44744;51.894;5.080;2023-01-25T00:46:34;103894.33;;;0.86;77.41
58967;BME280;44744;51.894;5.080;2023-01-25T00:47:35;103894.16;;;0.87;77.37
58967;BME280;44744;51.894;5.080;2023-01-25T00:48:35;103895.21;;;0.87;77.35
58967;BME280;44744;51.894;5.080;2023-01-25T00:49:37;103888.75;;;0.86;77.35
58967;BME280;44744;51.894;5.080;2023-01-25T00:50:38;103892.59;;;0.87;77.31
58967;BME280;44744;51.894;5.080;2023-01-25T00:51:38;103891.38;;;0.87;77.34
58967;BME280;44744;51.894;5.080;2023-01-25T00:52:39;103892.77;;;0.87;77.33
58967;BME280;44744;51.894;5.080;2023-01-25T00:53:40;103886.99;;;0.86;77.44
58967;BME280;44744;51.894;5.080;2023-01-25T00:54:40;103886.15;;;0.86;77.35
58967;BME280;44744;51.894;5.080;2023-01-25T00:55:50;103886.11;;;0.85;77.26
58967;BME280;44744;51.894;5.080;2023-01-25T00:56:51;103887.14;;;0.85;77.25
58967;BME280;44744;51.894;5.080;2023-01-25T00:57:52;103884.20;;;0.85;77.42
58967;BME280;44744;51.894;5.080;2023-01-25T00:58:52;103884.38;;;0.86;77.43
58967;BME280;44744;51.894;5.080;2023-01-25T00:59:52;103884.41;;;0.87;77.41
58967;BME280;44744;51.894;5.080;2023-01-25T01:00:54;103882.30;;;0.87;77.39
58967;BME280;44744;51.894;5.080;2023-01-25T01:01:55;103883.59;;;0.88;77.42
58967;BME280;44744;51.894;5.080;2023-01-25T01:02:55;103882.89;;;0.88;77.28
58967;BME280;44744;51.894;5.080;2023-01-25T01:03:56;103887.40;;;0.88;77.40
58967;BME280;44744;51.894;5.080;2023-01-25T01:04:56;103883.71;;;0.87;77.42
58967;BME280;44744;51.894;5.080;2023-01-25T01:06:08;103887.89;;;0.86;77.34
58967;BME280;44744;51.894;5.080;2023-01-25T01:07:12;103885.44;;;0.86;77.29
58967;BME280;44744;51.894;5.080;2023-01-25T01:08:13;103882.96;;;0.85;77.36
58967;BME280;44744;51.894;5.080;2023-01-25T01:09:15;103888.75;;;0.87;77.33
58967;BME280;44744;51.894;5.080;2023-01-25T01:10:16;103884.91;;;0.86;77.38
58967;BME280;44744;51.894;5.080;2023-01-25T01:11:16;103885.93;;;0.85;77.21
58967;BME280;44744;51.894;5.080;2023-01-25T01:12:17;103886.08;;;0.84;77.33
58967;BME280;44744;51.894;5.080;2023-01-25T01:13:17;103886.04;;;0.83;77.24
58967;BME280;44744;51.894;5.080;2023-01-25T01:14:18;103886.54;;;0.82;77.39
58967;BME280;44744;51.894;5.080;2023-01-25T01:15:18;103885.15;;;0.83;77.39
58967;BME280;44744;51.894;5.080;2023-01-25T01:16:18;103884.10;;;0.83;77.37
58967;BME280;44744;51.894;5.080;2023-01-25T01:17:19;103886.40;;;0.84;77.28
58967;BME280;44744;51.894;5.080;2023-01-25T01:18:19;103883.25;;;0.83;77.40
58967;BME280;44744;51.894;5.080;2023-01-25T01:19:19;103884.97;;;0.83;77.41
58967;BME280;44744;51.894;5.080;2023-01-25T01:20:20;103887.25;;;0.83;77.41
58967;BME280;44744;51.894;5.080;2023-01-25T01:21:20;103889.85;;;0.83;77.31
58967;BME280;44744;51.894;5.080;2023-01-25T01:22:21;103889.19;;;0.84;77.36
58967;BME280;44744;51.894;5.080;2023-01-25T01:23:21;103891.09;;;0.83;77.28
58967;BME280;44744;51.894;5.080;2023-01-25T01:24:21;103888.29;;;0.83;77.34
58967;BME280;44744;51.894;5.080;2023-01-25T01:25:22;103888.63;;;0.83;77.29
58967;BME280;44744;51.894;5.080;2023-01-25T01:26:23;103889.34;;;0.83;77.25
58967;BME280;44744;51.894;5.080;2023-01-25T01:27:23;103886.15;;;0.81;77.19
58967;BME280;44744;51.894;5.080;2023-01-25T01:28:24;103888.66;;;0.79;77.04
58967;BME280;44744;51.894;5.080;2023-01-25T01:29:24;103890.98;;;0.75;77.10
58967;BME280;44744;51.894;5.080;2023-01-25T01:30:24;103888.60;;;0.72;77.12
58967;BME280;44744;51.894;5.080;2023-01-25T01:31:25;103892.20;;;0.70;77.06
58967;BME280;44744;51.894;5.080;2023-01-25T01:32:25;103890.57;;;0.68;77.21
58967;BME280;44744;51.894;5.080;2023-01-25T01:33:25;103892.77;;;0.66;77.22
58967;BME280;44744;51.894;5.080;2023-01-25T01:34:26;103891.20;;;0.66;77.27
58967;BME280;44744;51.894;5.080;2023-01-25T01:35:28;103889.11;;;0.66;77.34
58967;BME280;44744;51.894;5.080;2023-01-25T01:36:29;103892.07;;;0.66;77.31
58967;BME280;44744;51.894;5.080;2023-01-25T01:37:29;103890.15;;;0.66;77.35
58967;BME280;44744;51.894;5.080;2023-01-25T01:38:31;103890.17;;;0.66;77.34
58967;BME280;44744;51.894;5.080;2023-01-25T01:39:32;103889.13;;;0.67;77.36
58967;BME280;44744;51.894;5.080;2023-01-25T01:40:35;103889.27;;;0.66;77.38
58967;BME280;44744;51.894;5.080;2023-01-25T01:41:36;103887.52;;;0.65;77.48
58967;BME280;44744;51.894;5.080;2023-01-25T01:42:58;103889.42;;;0.65;77.49
58967;BME280;44744;51.894;5.080;2023-01-25T01:43:58;103889.09;;;0.65;77.54
58967;BME280;44744;51.894;5.080;2023-01-25T01:44:59;103885.23;;;0.65;77.38
58967;BME280;44744;51.894;5.080;2023-01-25T01:46:04;103883.14;;;0.64;77.41
58967;BME280;44744;51.894;5.080;2023-01-25T01:47:12;103882.77;;;0.64;77.39
58967;BME280;44744;51.894;5.080;2023-01-25T01:48:24;103882.92;;;0.63;77.34
58967;BME280;44744;51.894;5.080;2023-01-25T01:49:30;103880.09;;;0.62;77.32
58967;BME280;44744;51.894;5.080;2023-01-25T01:50:31;103878.25;;;0.60;77.27
58967;BME280;44744;51.894;5.080;2023-01-25T01:52:36;103877.46;;;0.57;77.26
58967;BME280;44744;51.894;5.080;2023-01-25T01:53:37;103882.14;;;0.56;77.38
58967;BME280;44744;51.894;5.080;2023-01-25T01:54:42;103879.52;;;0.56;77.28
58967;BME280;44744;51.894;5.080;2023-01-25T01:55:44;103877.58;;;0.55;77.16
58967;BME280;44744;51.894;5.080;2023-01-25T01:56:51;103875.10;;;0.54;77.13
58967;BME280;44744;51.894;5.080;2023-01-25T01:57:56;103876.27;;;0.53;77.20
58967;BME280;44744;51.894;5.080;2023-01-25T01:58:59;103877.30;;;0.52;77.22
58967;BME280;44744;51.894;5.080;2023-01-25T02:00:06;103874.16;;;0.52;77.35
58967;BME280;44744;51.894;5.080;2023-01-25T02:01:08;103872.40;;;0.52;77.31
58967;BME280;44744;51.894;5.080;2023-01-25T02:02:08;103873.61;;;0.51;77.31
58967;BME280;44744;51.894;5.080;2023-01-25T02:03:10;103874.27;;;0.50;77.28
58967;BME280;44744;51.894;5.080;2023-01-25T02:04:12;103874.89;;;0.48;77.19
58967;BME280;44744;51.894;5.080;2023-01-25T02:05:34;103873.98;;;0.47;77.32
58967;BME280;44744;51.894;5.080;2023-01-25T02:07:44;103879.73;;;0.42;77.41
58967;BME280;44744;51.894;5.080;2023-01-25T02:08:46;103879.33;;;0.41;77.25
58967;BME280;44744;51.894;5.080;2023-01-25T02:09:48;103879.09;;;0.39;77.34
58967;BME280;44744;51.894;5.080;2023-01-25T02:10:49;103881.00;;;0.39;77.29
58967;BME280;44744;51.894;5.080;2023-01-25T02:11:51;103878.54;;;0.38;77.42
58967;BME280;44744;51.894;5.080;2023-01-25T02:12:53;103877.11;;;0.37;77.39
58967;BME280;44744;51.894;5.080;2023-01-25T02:13:55;103877.59;;;0.36;77.47
58967;BME280;44744;51.894;5.080;2023-01-25T02:14:57;103877.95;;;0.37;77.26
58967;BME280;44744;51.894;5.080;2023-01-25T02:15:57;103876.61;;;0.38;77.46
58967;BME280;44744;51.894;5.080;2023-01-25T02:16:58;103877.54;;;0.39;77.55
58967;BME280;44744;51.894;5.080;2023-01-25T02:17:58;103876.86;;;0.40;77.50
58967;BME280;44744;51.894;5.080;2023-01-25T02:18:58;103869.94;;;0.41;77.46
58967;BME280;44744;51.894;5.080;2023-01-25T02:21:25;103869.78;;;0.42;77.48
58967;BME280;44744;51.894;5.080;2023-01-25T02:22:33;103869.81;;;0.43;77.62
58967;BME280;44744;51.894;5.080;2023-01-25T02:23:56;103866.17;;;0.43;77.46
58967;BME280;44744;51.894;5.080;2023-01-25T02:25:06;103866.48;;;0.42;77.42
58967;BME280;44744;51.894;5.080;2023-01-25T02:26:07;103866.55;;;0.43;77.59
58967;BME280;44744;51.894;5.080;2023-01-25T02:27:07;103865.19;;;0.44;77.58
58967;BME280;44744;51.894;5.080;2023-01-25T02:28:27;103867.32;;;0.46;77.55
58967;BME280;44744;51.894;5.080;2023-01-25T02:29:29;103864.37;;;0.46;77.49
58967;BME280;44744;51.894;5.080;2023-01-25T02:30:30;103865.42;;;0.47;77.45
58967;BME280;44744;51.894;5.080;2023-01-25T02:31:31;103864.53;;;0.46;77.45
58967;BME280;44744;51.894;5.080;2023-01-25T02:32:32;103860.89;;;0.46;77.46
58967;BME280;44744;51.894;5.080;2023-01-25T02:33:33;103859.52;;;0.47;77.41
58967;BME280;44744;51.894;5.080;2023-01-25T02:34:33;103858.98;;;0.47;77.39
58967;BME280;44744;51.894;5.080;2023-01-25T02:35:40;103862.19;;;0.48;77.48
58967;BME280;44744;51.894;5.080;2023-01-25T02:36:41;103862.04;;;0.49;77.39
58967;BME280;44744;51.894;5.080;2023-01-25T02:37:41;103857.88;;;0.50;77.43
58967;BME280;44744;51.894;5.080;2023-01-25T02:38:55;103860.56;;;0.52;77.48
58967;BME280;44744;51.894;5.080;2023-01-25T02:39:57;103858.33;;;0.53;77.51
58967;BME280;44744;51.894;5.080;2023-01-25T02:41:02;103864.10;;;0.53;77.40
58967;BME280;44744;51.894;5.080;2023-01-25T02:42:03;103864.81;;;0.54;77.42
58967;BME280;44744;51.894;5.080;2023-01-25T02:43:03;103862.02;;;0.54;77.37
58967;BME280;44744;51.894;5.080;2023-01-25T02:44:10;103859.07;;;0.54;77.34
58967;BME280;44744;51.894;5.080;2023-01-25T02:45:14;103859.77;;;0.54;77.38
58967;BME280;44744;51.894;5.080;2023-01-25T02:46:26;103854.31;;;0.53;77.23
58967;BME280;44744;51.894;5.080;2023-01-25T02:47:27;103856.89;;;0.51;77.18
58967;BME280;44744;51.894;5.080;2023-01-25T02:48:27;103856.47;;;0.49;77.17
58967;BME280;44744;51.894;5.080;2023-01-25T02:49:28;103856.73;;;0.47;77.02
58967;BME280;44744;51.894;5.080;2023-01-25T02:50:28;103855.41;;;0.44;77.06
58967;BME280;44744;51.894;5.080;2023-01-25T02:51:32;103857.62;;;0.43;77.01
58967;BME280;44744;51.894;5.080;2023-01-25T02:52:33;103855.64;;;0.41;77.06
58967;BME280;44744;51.894;5.080;2023-01-25T02:53:33;103857.98;;;0.38;76.98
58967;BME280;44744;51.894;5.080;2023-01-25T02:54:35;103853.19;;;0.35;76.96
58967;BME280;44744;51.894;5.080;2023-01-25T02:55:35;103852.59;;;0.33;76.94
58967;BME280;44744;51.894;5.080;2023-01-25T02:56:36;103851.48;;;0.31;76.82
58967;BME280;44744;51.894;5.080;2023-01-25T02:57:36;103850.92;;;0.30;77.01
58967;BME280;44744;51.894;5.080;2023-01-25T02:58:37;103846.48;;;0.28;77.13
58967;BME280;44744;51.894;5.080;2023-01-25T02:59:37;103847.33;;;0.27;77.07
58967;BME280;44744;51.894;5.080;2023-01-25T03:00:37;103847.34;;;0.27;77.02
58967;BME280;44744;51.894;5.080;2023-01-25T03:01:39;103844.34;;;0.26;77.10
58967;BME280;44744;51.894;5.080;2023-01-25T03:02:40;103843.27;;;0.25;77.11
58967;BME280;44744;51.894;5.080;2023-01-25T03:03:40;103843.26;;;0.25;77.03
58967;BME280;44744;51.894;5.080;2023-01-25T03:04:41;103844.17;;;0.26;77.23
58967;BME280;44744;51.894;5.080;2023-01-25T03:05:42;103839.85;;;0.27;77.31
58967;BME280;44744;51.894;5.080;2023-01-25T03:06:43;103838.20;;;0.29;77.38
58967;BME280;44744;51.894;5.080;2023-01-25T03:07:43;103835.46;;;0.31;77.51
58967;BME280;44744;51.894;5.080;2023-01-25T03:08:43;103835.16;;;0.32;77.39
58967;BME280;44744;51.894;5.080;2023-01-25T03:09:44;103835.73;;;0.34;77.46
58967;BME280;44744;51.894;5.080;2023-01-25T03:10:44;103835.09;;;0.35;77.51
58967;BME280;44744;51.894;5.080;2023-01-25T03:11:44;103834.63;;;0.37;77.39
58967;BME280;44744;51.894;5.080;2023-01-25T03:12:44;103830.48;;;0.38;77.36
58967;BME280;44744;51.894;5.080;2023-01-25T03:13:45;103831.71;;;0.39;77.36
58967;BME280;44744;51.894;5.080;2023-01-25T03:14:45;103828.74;;;0.38;77.34
58967;BME280;44744;51.894;5.080;2023-01-25T03:15:45;103830.00;;;0.39;77.29
58967;BME280;44744;51.894;5.080;2023-01-25T03:16:46;103829.84;;;0.40;77.39
58967;BME280;44744;51.894;5.080;2023-01-25T03:17:46;103828.48;;;0.41;77.36
58967;BME280;44744;51.894;5.080;2023-01-25T03:18:46;103825.91;;;0.42;77.29
58967;BME280;44744;51.894;5.080;2023-01-25T03:19:46;103826.80;;;0.43;77.22
58967;BME280;44744;51.894;5.080;2023-01-25T03:20:47;103823.98;;;0.42;77.07
58967;BME280;44744;51.894;5.080;2023-01-25T03:21:47;103822.71;;;0.40;77.18
58967;BME280;44744;51.894;5.080;2023-01-25T03:22:47;103819.90;;;0.40;77.06
58967;BME280;44744;51.894;5.080;2023-01-25T03:23:54;103818.63;;;0.38;77.13
58967;BME280;44744;51.894;5.080;2023-01-25T03:24:55;103815.14;;;0.37;77.18
58967;BME280;44744;51.894;5.080;2023-01-25T03:26:03;103817.89;;;0.37;77.11
58967;BME280;44744;51.894;5.080;2023-01-25T03:27:04;103814.36;;;0.35;77.13
58967;BME280;44744;51.894;5.080;2023-01-25T03:28:05;103816.36;;;0.32;77.17
58967;BME280;44744;51.894;5.080;2023-01-25T03:29:05;103819.44;;;0.31;77.09
58967;BME280;44744;51.894;5.080;2023-01-25T03:30:06;103818.15;;;0.29;77.07
58967;BME280;44744;51.894;5.080;2023-01-25T03:31:09;103816.53;;;0.28;77.20
58967;BME280;44744;51.894;5.080;2023-01-25T03:32:10;103815.29;;;0.27;77.10
58967;BME280;44744;51.894;5.080;2023-01-25T03:33:10;103813.85;;;0.26;77.23
58967;BME280;44744;51.894;5.080;2023-01-25T03:34:11;103817.85;;;0.26;77.18
58967;BME280;44744;51.894;5.080;2023-01-25T03:35:11;103812.42;;;0.24;77.30
58967;BME280;44744;51.894;5.080;2023-01-25T03:36:11;103808.55;;;0.23;77.26
58967;BME280;44744;51.894;5.080;2023-01-25T03:37:12;103808.93;;;0.24;77.20
58967;BME280;44744;51.894;5.080;2023-01-25T03:38:12;103808.78;;;0.25;77.41
58967;BME280;44744;51.894;5.080;2023-01-25T03:39:13;103806.92;;;0.26;77.53
58967;BME280;44744;51.894;5.080;2023-01-25T03:40:13;103803.00;;;0.29;77.48
58967;BME280;44744;51.894;5.080;2023-01-25T03:41:13;103798.50;;;0.29;77.52
58967;BME280;44744;51.894;5.080;2023-01-25T03:42:14;103796.43;;;0.30;77.47
58967;BME280;44744;51.894;5.080;2023-01-25T03:43:14;103796.30;;;0.32;77.56
58967;BME280;44744;51.894;5.080;2023-01-25T03:44:15;103800.02;;;0.33;77.47
58967;BME280;44744;51.894;5.080;2023-01-25T03:45:15;103796.36;;;0.33;77.41
58967;BME280;44744;51.894;5.080;2023-01-25T03:46:16;103796.18;;;0.33;77.36
58967;BME280;44744;51.894;5.080;2023-01-25T03:47:16;103794.28;;;0.33;77.34
58967;BME280;44744;51.894;5.080;2023-01-25T03:48:16;103795.16;;;0.33;77.40
58967;BME280;44744;51.894;5.080;2023-01-25T03:49:17;103793.08;;;0.34;77.47
58967;BME280;44744;51.894;5.080;2023-01-25T03:50:17;103798.17;;;0.35;77.49
58967;BME280;44744;51.894;5.080;2023-01-25T03:51:18;103796.42;;;0.35;77.28
58967;BME280;44744;51.894;5.080;2023-01-25T03:52:18;103800.09;;;0.35;77.41
58967;BME280;44744;51.894;5.080;2023-01-25T03:53:24;103795.05;;;0.36;77.38
58967;BME280;44744;51.894;5.080;2023-01-25T03:54:24;103793.11;;;0.35;77.28
58967;BME280;44744;51.894;5.080;2023-01-25T03:55:24;103791.88;;;0.34;77.29
58967;BME280;44744;51.894;5.080;2023-01-25T03:56:25;103791.18;;;0.34;77.37
58967;BME280;44744;51.894;5.080;2023-01-25T03:57:25;103788.91;;;0.34;77.39
58967;BME280;44744;51.894;5.080;2023-01-25T03:58:25;103787.72;;;0.35;77.32
58967;BME280;44744;51.894;5.080;2023-01-25T03:59:26;103788.05;;;0.35;77.18
58967;BME280;44744;51.894;5.080;2023-01-25T04:00:26;103788.23;;;0.35;77.11
58967;BME280;44744;51.894;5.080;2023-01-25T04:01:27;103787.71;;;0.34;77.19
58967;BME280;44744;51.894;5.080;2023-01-25T04:02:27;103790.66;;;0.34;77.32
58967;BME280;44744;51.894;5.080;2023-01-25T04:03:28;103787.85;;;0.33;77.11
58967;BME280;44744;51.894;5.080;2023-01-25T04:04:28;103789.01;;;0.32;77.12
58967;BME280;44744;51.894;5.080;2023-01-25T04:05:28;103787.55;;;0.30;77.04
58967;BME280;44744;51.894;5.080;2023-01-25T04:06:29;103788.66;;;0.27;76.87
58967;BME280;44744;51.894;5.080;2023-01-25T04:07:29;103790.13;;;0.24;77.04
58967;BME280;44744;51.894;5.080;2023-01-25T04:08:30;103791.02;;;0.24;77.11
58967;BME280;44744;51.894;5.080;2023-01-25T04:09:30;103787.86;;;0.24;77.27
58967;BME280;44744;51.894;5.080;2023-01-25T04:10:30;103786.41;;;0.23;77.08
58967;BME280;44744;51.894;5.080;2023-01-25T04:11:31;103787.67;;;0.24;77.21
58967;BME280;44744;51.894;5.080;2023-01-25T04:12:31;103789.26;;;0.24;77.21
58967;BME280;44744;51.894;5.080;2023-01-25T04:13:32;103788.71;;;0.24;77.12
58967;BME280;44744;51.894;5.080;2023-01-25T04:14:32;103786.35;;;0.21;77.17
58967;BME280;44744;51.894;5.080;2023-01-25T04:15:33;103787.38;;;0.20;77.06
58967;BME280;44744;51.894;5.080;2023-01-25T04:16:33;103790.01;;;0.21;77.27
58967;BME280;44744;51.894;5.080;2023-01-25T04:17:33;103787.57;;;0.21;77.29
58967;BME280;44744;51.894;5.080;2023-01-25T04:18:33;103788.98;;;0.22;77.21
58967;BME280;44744;51.894;5.080;2023-01-25T04:19:34;103785.86;;;0.21;77.24
58967;BME280;44744;51.894;5.080;2023-01-25T04:20:34;103786.03;;;0.21;77.22
58967;BME280;44744;51.894;5.080;2023-01-25T04:21:34;103785.86;;;0.21;77.13
58967;BME280;44744;51.894;5.080;2023-01-25T04:22:35;103787.06;;;0.22;77.20
58967;BME280;44744;51.894;5.080;2023-01-25T04:23:35;103786.17;;;0.21;77.13
58967;BME280;44744;51.894;5.080;2023-01-25T04:24:35;103784.80;;;0.22;77.17
58967;BME280;44744;51.894;5.080;2023-01-25T04:25:36;103789.32;;;0.21;77.22
58967;BME280;44744;51.894;5.080;2023-01-25T04:26:36;103787.38;;;0.20;77.27
58967;BME280;44744;51.894;5.080;2023-01-25T04:27:37;103787.51;;;0.19;77.18
58967;BME280;44744;51.894;5.080;2023-01-25T04:28:37;103788.36;;;0.19;77.21
58967;BME280;44744;51.894;5.080;2023-01-25T04:29:37;103787.48;;;0.18;77.23
58967;BME280;44744;51.894;5.080;2023-01-25T04:30:38;103789.23;;;0.19;77.23
58967;BME280;44744;51.894;5.080;2023-01-25T04:31:38;103786.59;;;0.17;77.24
58967;BME280;44744;51.894;5.080;2023-01-25T04:32:38;103786.45;;;0.19;77.23
58967;BME280;44744;51.894;5.080;2023-01-25T04:33:39;103791.20;;;0.20;77.48
58967;BME280;44744;51.894;5.080;2023-01-25T04:34:39;103787.59;;;0.21;77.36
58967;BME280;44744;51.894;5.080;2023-01-25T04:35:39;103783.79;;;0.22;77.50
58967;BME280;44744;51.894;5.080;2023-01-25T04:36:40;103780.30;;;0.22;77.25
58967;BME280;44744;51.894;5.080;2023-01-25T04:37:40;103782.08;;;0.23;77.46
58967;BME280;44744;51.894;5.080;2023-01-25T04:38:41;103781.28;;;0.25;77.51
58967;BME280;44744;51.894;5.080;2023-01-25T04:39:41;103779.40;;;0.26;77.41
58967;BME280;44744;51.894;5.080;2023-01-25T04:40:42;103776.59;;;0.25;77.40
58967;BME280;44744;51.894;5.080;2023-01-25T04:41:42;103775.71;;;0.25;77.35
58967;BME280;44744;51.894;5.080;2023-01-25T04:42:43;103778.70;;;0.26;77.34
58967;BME280;44744;51.894;5.080;2023-01-25T04:43:43;103772.95;;;0.26;77.35
58967;BME280;44744;51.894;5.080;2023-01-25T04:44:43;103772.63;;;0.27;77.24
58967;BME280;44744;51.894;5.080;2023-01-25T04:45:44;103773.65;;;0.26;77.26
58967;BME280;44744;51.894;5.080;2023-01-25T04:46:45;103772.09;;;0.26;77.37
58967;BME280;44744;51.894;5.080;2023-01-25T04:47:45;103773.13;;;0.26;77.31
58967;BME280;44744;51.894;5.080;2023-01-25T04:48:45;103771.72;;;0.25;77.27
58967;BME280;44744;51.894;5.080;2023-01-25T04:49:45;103768.38;;;0.24;77.19
58967;BME280;44744;51.894;5.080;2023-01-25T04:50:46;103769.91;;;0.23;77.21
58967;BME280;44744;51.894;5.080;2023-01-25T04:51:46;103766.97;;;0.24;77.28
58967;BME280;44744;51.894;5.080;2023-01-25T04:52:46;103761.73;;;0.24;77.24
58967;BME280;44744;51.894;5.080;2023-01-25T04:53:47;103759.96;;;0.23;77.16
58967;BME280;44744;51.894;5.080;2023-01-25T04:54:47;103759.25;;;0.23;77.25
58967;BME280;44744;51.894;5.080;2023-01-25T04:55:47;103760.27;;;0.22;77.21
58967;BME280;44744;51.894;5.080;2023-01-25T04:56:48;103756.79;;;0.22;77.18
58967;BME280;44744;51.894;5.080;2023-01-25T04:57:49;103757.27;;;0.21;77.06
58967;BME280;44744;51.894;5.080;2023-01-25T04:58:49;103750.95;;;0.19;77.15
58967;BME280;44744;51.894;5.080;2023-01-25T04:59:49;103750.77;;;0.19;77.27
58967;BME280;44744;51.894;5.080;2023-01-25T05:00:49;103751.25;;;0.18;77.16
58967;BME280;44744;51.894;5.080;2023-01-25T05:01:50;103748.96;;;0.17;77.33
58967;BME280;44744;51.894;5.080;2023-01-25T05:02:50;103750.85;;;0.16;77.34
58967;BME280;44744;51.894;5.080;2023-01-25T05:03:50;103753.09;;;0.15;77.12
58967;BME280;44744;51.894;5.080;2023-01-25T05:04:50;103751.80;;;0.13;77.06
58967;BME280;44744;51.894;5.080;2023-01-25T05:05:51;103754.17;;;0.11;77.20
58967;BME280;44744;51.894;5.080;2023-01-25T05:06:51;103751.16;;;0.10;77.14
58967;BME280;44744;51.894;5.080;2023-01-25T05:07:51;103755.30;;;0.09;77.06
58967;BME280;44744;51.894;5.080;2023-01-25T05:08:51;103750.03;;;0.07;77.22
58967;BME280;44744;51.894;5.080;2023-01-25T05:09:52;103751.77;;;0.07;77.31
58967;BME280;44744;51.894;5.080;2023-01-25T05:10:52;103750.53;;;0.07;77.20
58967;BME280;44744;51.894;5.080;2023-01-25T05:11:52;103751.38;;;0.06;77.43
58967;BME280;44744;51.894;5.080;2023-01-25T05:12:53;103748.75;;;0.06;77.29
58967;BME280;44744;51.894;5.080;2023-01-25T05:13:53;103745.75;;;0.05;77.19
58967;BME280;44744;51.894;5.080;2023-01-25T05:14:53;103744.48;;;0.04;77.30
58967;BME280;44744;51.894;5.080;2023-01-25T05:15:55;103744.48;;;0.03;77.19
58967;BME280;44744;51.894;5.080;2023-01-25T05:16:55;103746.39;;;0.04;77.53
58967;BME280;44744;51.894;5.080;2023-01-25T05:17:55;103743.58;;;0.02;77.47
58967;BME280;44744;51.894;5.080;2023-01-25T05:18:56;103747.06;;;0.02;77.46
58967;BME280;44744;51.894;5.080;2023-01-25T05:19:56;103744.30;;;0.03;77.44
58967;BME280;44744;51.894;5.080;2023-01-25T05:20:56;103746.94;;;0.04;77.45
58967;BME280;44744;51.894;5.080;2023-01-25T05:21:57;103748.86;;;0.04;77.53
58967;BME280;44744;51.894;5.080;2023-01-25T05:22:57;103751.82;;;0.04;77.43
58967;BME280;44744;51.894;5.080;2023-01-25T05:24:00;103750.77;;;0.04;77.49
58967;BME280;44744;51.894;5.080;2023-01-25T05:25:03;103751.95;;;0.03;77.43
58967;BME280;44744;51.894;5.080;2023-01-25T05:26:04;103751.57;;;0.02;77.47
58967;BME280;44744;51.894;5.080;2023-01-25T05:27:04;103753.48;;;0.01;77.34
58967;BME280;44744;51.894;5.080;2023-01-25T05:28:05;103751.34;;;0.00;77.35
58967;BME280;44744;51.894;5.080;2023-01-25T05:29:06;103745.73;;;-0.01;77.52
58967;BME280;44744;51.894;5.080;2023-01-25T05:30:07;103747.61;;;-0.02;77.34
58967;BME280;44744;51.894;5.080;2023-01-25T05:31:07;103746.05;;;-0.02;77.42